createdAt,value
2023-04-09T00:00:48.522Z,8.97
2023-04-09T00:01:48.509Z,8.96
2023-04-09T00:02:48.590Z,8.97
2023-04-09T00:03:48.605Z,8.96
2023-04-09T00:04:48.526Z,8.94
2023-04-09T00:05:48.463Z,8.93
2023-04-09T00:06:48.423Z,8.93
2023-04-09T00:07:48.428Z,8.91
2023-04-09T00:08:48.437Z,8.86
2023-04-09T00:09:48.397Z,8.86
2023-04-09T00:10:48.410Z,8.85
2023-04-09T00:11:48.393Z,8.85
2023-04-09T00:12:48.360Z,8.86
2023-04-09T00:13:48.444Z,8.85
2023-04-09T00:14:48.368Z,8.82
2023-04-09T00:15:48.351Z,8.80
2023-04-09T00:16:48.317Z,8.80
2023-04-09T00:17:48.391Z,8.79
2023-04-09T00:18:48.304Z,8.78
2023-04-09T00:19:48.294Z,8.78
2023-04-09T00:20:48.295Z,8.79
2023-04-09T00:21:48.307Z,8.79
2023-04-09T00:22:48.266Z,8.79
2023-04-09T00:23:48.245Z,8.78
2023-04-09T00:24:48.245Z,8.75
2023-04-09T00:25:48.241Z,8.73
2023-04-09T00:26:48.229Z,8.71
2023-04-09T00:27:48.229Z,8.70
2023-04-09T00:28:48.206Z,8.65
2023-04-09T00:29:48.211Z,8.65
2023-04-09T00:30:48.173Z,8.64
2023-04-09T00:31:48.300Z,8.64
2023-04-09T00:32:48.201Z,8.63
2023-04-09T00:33:48.165Z,8.61
2023-04-09T00:34:48.135Z,8.58
2023-04-09T00:35:48.195Z,8.57
2023-04-09T00:36:48.106Z,8.55
2023-04-09T00:37:48.110Z,8.55
2023-04-09T00:38:48.104Z,8.57
2023-04-09T00:39:48.085Z,8.60
2023-04-09T00:40:48.081Z,8.60
2023-04-09T00:41:48.058Z,8.63
2023-04-09T00:42:48.070Z,8.65
2023-04-09T00:43:48.037Z,8.67
2023-04-09T00:44:48.036Z,8.64
2023-04-09T00:45:48.047Z,8.64
2023-04-09T00:46:48.028Z,8.68
2023-04-09T00:47:48.087Z,8.70
2023-04-09T00:48:48.711Z,8.71
2023-04-09T00:49:47.996Z,8.73
2023-04-09T00:50:47.960Z,8.75
2023-04-09T00:51:47.994Z,8.76
2023-04-09T00:52:47.949Z,8.78
2023-04-09T00:53:47.950Z,8.78
2023-04-09T00:54:47.928Z,8.78
2023-04-09T00:55:47.923Z,8.76
2023-04-09T00:56:47.941Z,8.75
2023-04-09T00:57:47.928Z,8.76
2023-04-09T00:58:47.875Z,8.75
2023-04-09T00:59:47.864Z,8.75
2023-04-09T01:00:47.910Z,8.75
2023-04-09T01:01:47.907Z,8.76
2023-04-09T01:02:48.009Z,8.78
2023-04-09T01:03:47.976Z,8.79
2023-04-09T01:04:47.813Z,8.79
2023-04-09T01:05:47.819Z,8.79
2023-04-09T01:06:47.806Z,8.78
2023-04-09T01:07:47.806Z,8.79
2023-04-09T01:08:47.777Z,8.78
2023-04-09T01:09:47.791Z,8.80
2023-04-09T01:10:47.760Z,8.79
2023-04-09T01:11:47.773Z,8.79
2023-04-09T01:12:47.729Z,8.80
2023-04-09T01:13:47.730Z,8.82
2023-04-09T01:14:47.698Z,8.82
2023-04-09T01:15:47.716Z,8.80
2023-04-09T01:16:47.766Z,8.82
2023-04-09T01:17:47.701Z,8.80
2023-04-09T01:18:47.677Z,8.80
2023-04-09T01:19:47.676Z,8.80
2023-04-09T01:20:47.644Z,8.80
2023-04-09T01:21:47.641Z,8.79
2023-04-09T01:22:47.625Z,8.79
2023-04-09T01:23:47.624Z,8.78
2023-04-09T01:24:47.617Z,8.78
2023-04-09T01:25:47.623Z,8.76
2023-04-09T01:26:47.567Z,8.75
2023-04-09T01:27:47.587Z,8.76
2023-04-09T01:28:47.567Z,8.76
2023-04-09T01:29:47.562Z,8.76
2023-04-09T01:30:47.647Z,8.73
2023-04-09T01:31:47.524Z,8.71
2023-04-09T01:32:47.584Z,8.70
2023-04-09T01:33:47.497Z,8.68
2023-04-09T01:34:47.502Z,8.67
2023-04-09T01:35:47.522Z,8.68
2023-04-09T01:36:47.465Z,8.68
2023-04-09T01:37:47.488Z,8.65
2023-04-09T01:38:47.439Z,8.65
2023-04-09T01:39:47.452Z,8.64
2023-04-09T01:40:47.433Z,8.65
2023-04-09T01:41:47.414Z,8.65
2023-04-09T01:42:47.408Z,8.67
2023-04-09T01:43:47.430Z,8.68
2023-04-09T01:44:47.397Z,8.68
2023-04-09T01:45:47.429Z,8.68
2023-04-09T01:46:47.388Z,8.68
2023-04-09T01:47:47.392Z,8.70
2023-04-09T01:48:47.353Z,8.70
2023-04-09T01:49:47.348Z,8.70
2023-04-09T01:50:47.325Z,8.68
2023-04-09T01:51:47.318Z,8.70
2023-04-09T01:52:47.293Z,8.71
2023-04-09T01:53:47.299Z,8.71
2023-04-09T01:54:47.321Z,8.73
2023-04-09T01:55:47.294Z,8.73
2023-04-09T01:56:47.279Z,8.73
2023-04-09T01:57:47.242Z,8.73
2023-04-09T01:58:47.241Z,8.73
2023-04-09T01:59:47.224Z,8.73
2023-04-09T02:00:47.228Z,8.73
2023-04-09T02:01:47.442Z,8.73
2023-04-09T02:02:47.356Z,8.71
2023-04-09T02:03:47.309Z,8.71
2023-04-09T02:04:47.173Z,8.75
2023-04-09T02:05:47.171Z,8.76
2023-04-09T02:06:47.181Z,8.73
2023-04-09T02:07:47.134Z,8.73
2023-04-09T02:08:47.141Z,8.73
2023-04-09T02:09:47.121Z,8.73
2023-04-09T02:10:47.115Z,8.71
2023-04-09T02:11:47.142Z,8.71
2023-04-09T02:12:47.089Z,8.71
2023-04-09T02:13:47.085Z,8.71
2023-04-09T02:14:47.077Z,8.67
2023-04-09T02:15:47.090Z,8.68
2023-04-09T02:16:47.095Z,8.65
2023-04-09T02:17:47.124Z,8.67
2023-04-09T02:18:47.019Z,8.65
2023-04-09T02:19:47.036Z,8.64
2023-04-09T02:20:47.012Z,8.61
2023-04-09T02:21:47.013Z,8.58
2023-04-09T02:22:46.989Z,8.58
2023-04-09T02:23:46.980Z,8.60
2023-04-09T02:24:46.978Z,8.61
2023-04-09T02:25:47.002Z,8.60
2023-04-09T02:26:46.941Z,8.63
2023-04-09T02:27:46.928Z,8.63
2023-04-09T02:28:46.935Z,8.61
2023-04-09T02:29:46.904Z,8.63
2023-04-09T02:30:46.933Z,8.63
2023-04-09T02:31:46.907Z,8.63
2023-04-09T02:32:46.923Z,8.63
2023-04-09T02:33:46.866Z,8.63
2023-04-09T02:34:46.869Z,8.60
2023-04-09T02:35:46.888Z,8.60
2023-04-09T02:36:46.854Z,8.58
2023-04-09T02:37:46.826Z,8.58
2023-04-09T02:38:46.855Z,8.55
2023-04-09T02:39:46.802Z,8.54
2023-04-09T02:40:46.801Z,8.52
2023-04-09T02:41:46.798Z,8.52
2023-04-09T02:42:46.798Z,8.50
2023-04-09T02:43:46.766Z,8.50
2023-04-09T02:44:46.758Z,8.47
2023-04-09T02:45:46.762Z,8.47
2023-04-09T02:46:46.755Z,8.47
2023-04-09T02:47:46.751Z,8.46
2023-04-09T02:48:46.728Z,8.42
2023-04-09T02:49:46.734Z,8.42
2023-04-09T02:50:46.681Z,8.40
2023-04-09T02:51:46.666Z,8.39
2023-04-09T02:52:46.678Z,8.39
2023-04-09T02:53:46.642Z,8.36
2023-04-09T02:54:46.641Z,8.36
2023-04-09T02:55:46.628Z,8.36
2023-04-09T02:56:46.633Z,8.34
2023-04-09T02:57:46.636Z,8.34
2023-04-09T02:58:46.597Z,8.31
2023-04-09T02:59:46.616Z,8.32
2023-04-09T03:00:46.575Z,8.29
2023-04-09T03:01:46.653Z,8.29
2023-04-09T03:02:46.674Z,8.29
2023-04-09T03:03:46.603Z,8.28
2023-04-09T03:04:46.531Z,8.27
2023-04-09T03:05:46.534Z,8.27
2023-04-09T03:06:46.548Z,8.27
2023-04-09T03:07:46.508Z,8.25
2023-04-09T03:08:46.501Z,8.24
2023-04-09T03:09:46.496Z,8.22
2023-04-09T03:10:46.479Z,8.21
2023-04-09T03:11:46.496Z,8.20
2023-04-09T03:12:46.469Z,8.21
2023-04-09T03:13:46.480Z,8.22
2023-04-09T03:14:46.432Z,8.21
2023-04-09T03:15:46.462Z,8.20
2023-04-09T03:16:46.444Z,8.20
2023-04-09T03:17:46.416Z,8.21
2023-04-09T03:18:46.383Z,8.21
2023-04-09T03:19:46.381Z,8.22
2023-04-09T03:20:46.379Z,8.22
2023-04-09T03:21:46.462Z,8.22
2023-04-09T03:22:46.381Z,8.21
2023-04-09T03:23:46.330Z,8.21
2023-04-09T03:24:46.341Z,8.22
2023-04-09T03:25:46.319Z,8.24
2023-04-09T03:26:46.358Z,8.24
2023-04-09T03:27:46.304Z,8.22
2023-04-09T03:28:46.319Z,8.21
2023-04-09T03:29:46.290Z,8.22
2023-04-09T03:30:46.275Z,8.24
2023-04-09T03:31:46.252Z,8.24
2023-04-09T03:32:46.296Z,8.24
2023-04-09T03:33:46.246Z,8.24
2023-04-09T03:34:46.228Z,8.24
2023-04-09T03:35:46.271Z,8.25
2023-04-09T03:36:46.199Z,8.22
2023-04-09T03:37:46.210Z,8.22
2023-04-09T03:38:46.191Z,8.21
2023-04-09T03:39:46.173Z,8.22
2023-04-09T03:40:46.179Z,8.20
2023-04-09T03:41:46.163Z,8.20
2023-04-09T03:42:46.133Z,8.20
2023-04-09T03:43:46.136Z,8.21
2023-04-09T03:44:46.417Z,8.20
2023-04-09T03:45:46.098Z,8.21
2023-04-09T03:46:46.179Z,8.21
2023-04-09T03:47:46.164Z,8.21
2023-04-09T03:48:46.083Z,8.22
2023-04-09T03:49:46.062Z,8.18
2023-04-09T03:50:46.124Z,8.18
2023-04-09T03:51:46.053Z,8.14
2023-04-09T03:52:46.037Z,8.17
2023-04-09T03:53:46.132Z,8.13
2023-04-09T03:54:46.193Z,8.17
2023-04-09T03:55:46.000Z,8.17
2023-04-09T03:56:45.985Z,8.14
2023-04-09T03:57:45.983Z,8.14
2023-04-09T03:58:45.960Z,8.13
2023-04-09T03:59:45.958Z,8.13
2023-04-09T04:00:45.956Z,8.14
2023-04-09T04:01:45.987Z,8.13
2023-04-09T04:02:46.175Z,8.13
2023-04-09T04:03:46.072Z,8.14
2023-04-09T04:04:46.030Z,8.13
2023-04-09T04:05:45.909Z,8.13
2023-04-09T04:06:45.889Z,8.13
2023-04-09T04:07:45.872Z,8.13
2023-04-09T04:08:45.867Z,8.13
2023-04-09T04:09:45.846Z,8.13
2023-04-09T04:10:45.851Z,8.13
2023-04-09T04:11:46.088Z,8.12
2023-04-09T04:12:45.887Z,8.10
2023-04-09T04:13:45.794Z,8.10
2023-04-09T04:14:45.790Z,8.09
2023-04-09T04:15:45.792Z,8.10
2023-04-09T04:16:45.793Z,8.07
2023-04-09T04:17:45.843Z,8.06
2023-04-09T04:18:45.758Z,8.06
2023-04-09T04:19:45.738Z,8.04
2023-04-09T04:20:45.724Z,8.02
2023-04-09T04:21:45.985Z,8.00
2023-04-09T04:22:45.717Z,8.02
2023-04-09T04:23:45.696Z,8.00
2023-04-09T04:24:45.695Z,8.00
2023-04-09T04:25:45.683Z,8.00
2023-04-09T04:26:45.659Z,8.00
2023-04-09T04:27:45.672Z,8.02
2023-04-09T04:28:45.646Z,8.02
2023-04-09T04:29:45.652Z,8.03
2023-04-09T04:30:45.683Z,8.04
2023-04-09T04:31:45.637Z,8.03
2023-04-09T04:32:45.646Z,8.04
2023-04-09T04:33:45.591Z,8.04
2023-04-09T04:34:45.576Z,8.03
2023-04-09T04:35:45.587Z,8.04
2023-04-09T04:36:45.746Z,8.04
2023-04-09T04:37:45.553Z,8.03
2023-04-09T04:38:45.531Z,8.04
2023-04-09T04:39:45.541Z,8.04
2023-04-09T04:40:45.531Z,8.02
2023-04-09T04:41:45.722Z,8.02
2023-04-09T04:42:45.500Z,8.03
2023-04-09T04:43:45.486Z,8.02
2023-04-09T04:44:45.470Z,8.02
2023-04-09T04:45:45.518Z,8.03
2023-04-09T04:46:45.472Z,8.02
2023-04-09T04:47:45.453Z,8.02
2023-04-09T04:48:45.439Z,8.02
2023-04-09T04:49:45.427Z,8.00
2023-04-09T04:50:45.592Z,8.03
2023-04-09T04:51:45.396Z,8.02
2023-04-09T04:52:45.389Z,7.99
2023-04-09T04:53:45.375Z,7.96
2023-04-09T04:54:45.366Z,7.96
2023-04-09T04:55:45.359Z,7.99
2023-04-09T04:56:45.342Z,8.00
2023-04-09T04:57:45.340Z,7.99
2023-04-09T04:58:45.328Z,8.02
2023-04-09T04:59:45.318Z,8.00
2023-04-09T05:00:45.336Z,8.02
2023-04-09T05:01:45.337Z,8.03
2023-04-09T05:02:45.404Z,8.03
2023-04-09T05:03:45.387Z,8.04
2023-04-09T05:04:45.277Z,8.03
2023-04-09T05:05:45.235Z,8.03
2023-04-09T05:06:45.244Z,8.04
2023-04-09T05:07:45.218Z,8.03
2023-04-09T05:08:45.230Z,8.04
2023-04-09T05:09:45.220Z,8.03
2023-04-09T05:10:45.206Z,8.02
2023-04-09T05:11:45.194Z,8.04
2023-04-09T05:12:45.169Z,8.03
2023-04-09T05:13:45.173Z,8.06
2023-04-09T05:14:45.168Z,8.06
2023-04-09T05:15:45.138Z,8.07
2023-04-09T05:16:45.196Z,8.09
2023-04-09T05:17:45.162Z,8.10
2023-04-09T05:18:45.110Z,8.10
2023-04-09T05:19:45.091Z,8.10
2023-04-09T05:20:45.108Z,8.10
2023-04-09T05:21:46.765Z,8.09
2023-04-09T05:22:45.080Z,8.10
2023-04-09T05:23:45.064Z,8.10
2023-04-09T05:24:45.080Z,8.10
2023-04-09T05:25:45.033Z,8.12
2023-04-09T05:26:45.027Z,8.13
2023-04-09T05:27:45.017Z,8.17
2023-04-09T05:28:45.025Z,8.18
2023-04-09T05:29:44.989Z,8.21
2023-04-09T05:30:45.045Z,8.21
2023-04-09T05:31:44.961Z,8.21
2023-04-09T05:32:44.977Z,8.22
2023-04-09T05:33:44.974Z,8.24
2023-04-09T05:34:44.951Z,8.25
2023-04-09T05:35:44.986Z,8.25
2023-04-09T05:36:44.934Z,8.28
2023-04-09T05:37:44.915Z,8.28
2023-04-09T05:38:44.909Z,8.31
2023-04-09T05:39:44.891Z,8.31
2023-04-09T05:40:44.891Z,8.34
2023-04-09T05:41:45.742Z,8.34
2023-04-09T05:42:45.218Z,8.36
2023-04-09T05:43:45.227Z,8.36
2023-04-09T05:44:45.208Z,8.36
2023-04-09T05:45:45.088Z,8.37
2023-04-09T05:46:44.823Z,8.40
2023-04-09T05:47:45.189Z,8.40
2023-04-09T05:48:44.824Z,8.42
2023-04-09T05:49:44.789Z,8.40
2023-04-09T05:50:53.934Z,8.42
2023-04-09T05:51:45.872Z,8.42
2023-04-09T05:52:44.779Z,8.45
2023-04-09T05:53:44.762Z,8.47
2023-04-09T05:54:44.731Z,8.47
2023-04-09T05:55:44.724Z,8.50
2023-04-09T05:56:44.725Z,8.50
2023-04-09T05:57:44.698Z,8.50
2023-04-09T05:58:44.716Z,8.50
2023-04-09T05:59:44.879Z,8.52
2023-04-09T06:00:44.697Z,8.54
2023-04-09T06:01:44.769Z,8.57
2023-04-09T06:02:44.764Z,8.60
2023-04-09T06:03:45.815Z,8.61
2023-04-09T06:04:44.713Z,8.63
2023-04-09T06:05:45.171Z,8.65
2023-04-09T06:06:44.647Z,8.65
2023-04-09T06:07:45.178Z,8.65
2023-04-09T06:08:44.594Z,8.68
2023-04-09T06:09:44.648Z,8.71
2023-04-09T06:10:44.560Z,8.75
2023-04-09T06:11:44.566Z,8.76
2023-04-09T06:12:44.553Z,8.79
2023-04-09T06:13:44.526Z,8.82
2023-04-09T06:14:44.519Z,8.85
2023-04-09T06:15:44.569Z,8.88
2023-04-09T06:16:44.505Z,8.89
2023-04-09T06:17:44.572Z,8.89
2023-04-09T06:18:44.488Z,8.89
2023-04-09T06:19:44.474Z,8.91
2023-04-09T06:20:44.477Z,8.93
2023-04-09T06:21:44.456Z,8.94
2023-04-09T06:22:44.440Z,8.93
2023-04-09T06:23:44.434Z,8.96
2023-04-09T06:24:44.414Z,8.98
2023-04-09T06:25:44.431Z,8.97
2023-04-09T06:26:44.403Z,8.97
2023-04-09T06:27:44.388Z,8.94
2023-04-09T06:28:44.384Z,8.93
2023-04-09T06:29:44.401Z,8.93
2023-04-09T06:30:44.458Z,8.93
2023-04-09T06:31:44.367Z,8.91
2023-04-09T06:32:53.632Z,8.91
2023-04-09T06:33:45.341Z,8.91
2023-04-09T06:34:44.307Z,8.94
2023-04-09T06:35:44.323Z,8.94
2023-04-09T06:36:44.293Z,8.94
2023-04-09T06:37:44.272Z,8.93
2023-04-09T06:38:44.276Z,8.96
2023-04-09T06:39:50.564Z,8.97
2023-04-09T06:40:45.244Z,8.97
2023-04-09T06:41:44.234Z,8.97
2023-04-09T06:42:44.232Z,8.97
2023-04-09T06:43:44.206Z,8.98
2023-04-09T06:44:44.198Z,9.00
2023-04-09T06:45:44.200Z,9.01
2023-04-09T06:46:44.199Z,9.01
2023-04-09T06:47:44.210Z,9.03
2023-04-09T06:48:44.159Z,9.03
2023-04-09T06:49:44.246Z,9.03
2023-04-09T06:50:44.144Z,9.06
2023-04-09T06:51:44.126Z,9.04
2023-04-09T06:52:44.127Z,9.10
2023-04-09T06:53:44.402Z,9.10
2023-04-09T06:54:44.098Z,9.15
2023-04-09T06:55:44.095Z,9.16
2023-04-09T06:56:44.062Z,9.17
2023-04-09T06:57:44.070Z,9.19
2023-04-09T06:58:44.107Z,9.19
2023-04-09T06:59:44.039Z,9.22
2023-04-09T07:00:44.031Z,9.23
2023-04-09T07:01:44.089Z,9.24
2023-04-09T07:02:44.333Z,9.27
2023-04-09T07:03:44.076Z,9.30
2023-04-09T07:04:44.043Z,9.27
2023-04-09T07:05:44.014Z,9.30
2023-04-09T07:06:43.981Z,9.30
2023-04-09T07:07:44.000Z,9.30
2023-04-09T07:08:43.980Z,9.31
2023-04-09T07:09:43.933Z,9.34
2023-04-09T07:10:43.919Z,9.32
2023-04-09T07:11:43.932Z,9.35
2023-04-09T07:12:44.048Z,9.38
2023-04-09T07:13:44.002Z,9.40
2023-04-09T07:14:43.899Z,9.42
2023-04-09T07:15:43.930Z,9.44
2023-04-09T07:16:43.910Z,9.45
2023-04-09T07:17:44.009Z,9.49
2023-04-09T07:18:43.886Z,9.52
2023-04-09T07:19:44.255Z,9.55
2023-04-09T07:20:43.849Z,9.56
2023-04-09T07:21:43.878Z,9.59
2023-04-09T07:22:43.852Z,9.59
2023-04-09T07:23:43.913Z,9.62
2023-04-09T07:24:43.801Z,9.63
2023-04-09T07:25:43.779Z,9.67
2023-04-09T07:26:43.751Z,9.65
2023-04-09T07:27:43.751Z,9.68
2023-04-09T07:28:43.736Z,9.68
2023-04-09T07:29:43.739Z,9.71
2023-04-09T07:30:43.701Z,9.71
2023-04-09T07:31:43.836Z,9.74
2023-04-09T07:32:43.748Z,9.75
2023-04-09T07:33:43.686Z,9.75
2023-04-09T07:34:43.698Z,9.77
2023-04-09T07:35:43.691Z,9.77
2023-04-09T07:36:43.656Z,9.80
2023-04-09T07:37:43.648Z,9.80
2023-04-09T07:38:43.631Z,9.81
2023-04-09T07:39:43.613Z,9.85
2023-04-09T07:40:43.597Z,9.86
2023-04-09T07:41:43.612Z,9.88
2023-04-09T07:42:43.588Z,9.91
2023-04-09T07:43:43.588Z,9.93
2023-04-09T07:44:43.570Z,9.98
2023-04-09T07:45:43.550Z,10.01
2023-04-09T07:46:43.593Z,10.04
2023-04-09T07:47:43.573Z,10.07
2023-04-09T07:48:43.521Z,10.10
2023-04-09T07:49:43.524Z,10.11
2023-04-09T07:50:43.511Z,10.16
2023-04-09T07:51:43.685Z,10.20
2023-04-09T07:52:43.472Z,10.24
2023-04-09T07:53:43.481Z,10.26
2023-04-09T07:54:43.450Z,10.31
2023-04-09T07:55:43.468Z,10.35
2023-04-09T07:56:43.446Z,10.38
2023-04-09T07:57:43.438Z,10.44
2023-04-09T07:58:43.420Z,10.49
2023-04-09T07:59:43.417Z,10.52
2023-04-09T08:00:43.413Z,10.60
2023-04-09T08:01:43.473Z,10.66
2023-04-09T08:02:43.486Z,10.73
2023-04-09T08:03:43.539Z,10.80
2023-04-09T08:04:43.527Z,10.86
2023-04-09T08:05:43.389Z,10.91
2023-04-09T08:06:43.335Z,10.94
2023-04-09T08:07:43.323Z,10.98
2023-04-09T08:08:43.322Z,11.01
2023-04-09T08:09:43.309Z,11.05
2023-04-09T08:10:43.296Z,11.06
2023-04-09T08:11:43.281Z,11.09
2023-04-09T08:12:43.305Z,11.11
2023-04-09T08:13:43.286Z,11.12
2023-04-09T08:14:43.261Z,11.12
2023-04-09T08:15:43.225Z,11.12
2023-04-09T08:16:43.273Z,11.13
2023-04-09T08:17:43.255Z,11.11
2023-04-09T08:18:43.211Z,11.11
2023-04-09T08:19:43.206Z,11.12
2023-04-09T08:20:43.186Z,11.13
2023-04-09T08:21:43.182Z,11.13
2023-04-09T08:22:43.155Z,11.13
2023-04-09T08:23:43.156Z,11.16
2023-04-09T08:24:43.138Z,11.16
2023-04-09T08:25:43.118Z,11.16
2023-04-09T08:26:43.122Z,11.19
2023-04-09T08:27:43.106Z,11.19
2023-04-09T08:28:43.103Z,11.20
2023-04-09T08:29:43.115Z,11.20
2023-04-09T08:30:43.095Z,11.21
2023-04-09T08:31:43.120Z,11.21
2023-04-09T08:32:43.099Z,11.24
2023-04-09T08:33:43.061Z,11.26
2023-04-09T08:34:43.027Z,11.26
2023-04-09T08:35:43.019Z,11.27
2023-04-09T08:36:43.020Z,11.27
2023-04-09T08:37:43.015Z,11.28
2023-04-09T08:38:42.984Z,11.30
2023-04-09T08:39:43.017Z,11.35
2023-04-09T08:40:42.971Z,11.35
2023-04-09T08:41:42.984Z,11.41
2023-04-09T08:42:42.956Z,11.44
2023-04-09T08:43:56.921Z,11.46
2023-04-09T08:44:43.937Z,11.49
2023-04-09T08:45:42.937Z,11.54
2023-04-09T08:46:42.899Z,11.57
2023-04-09T08:47:42.981Z,11.59
2023-04-09T08:48:42.986Z,11.62
2023-04-09T08:49:42.896Z,11.63
2023-04-09T08:50:42.884Z,11.66
2023-04-09T08:51:42.853Z,11.72
2023-04-09T08:52:42.855Z,11.74
2023-04-09T08:53:42.822Z,11.78
2023-04-09T08:54:42.856Z,11.82
2023-04-09T08:55:42.824Z,11.82
2023-04-09T08:56:42.802Z,11.84
2023-04-09T08:57:42.820Z,11.85
2023-04-09T08:58:42.777Z,11.88
2023-04-09T08:59:42.768Z,11.93
2023-04-09T09:00:42.754Z,11.94
2023-04-09T09:01:42.775Z,11.98
2023-04-09T09:02:42.838Z,11.98
2023-04-09T09:03:42.796Z,12.01
2023-04-09T09:04:42.697Z,12.01
2023-04-09T09:05:42.703Z,12.04
2023-04-09T09:06:42.712Z,12.08
2023-04-09T09:07:42.677Z,12.11
2023-04-09T09:08:42.684Z,12.15
2023-04-09T09:09:42.660Z,12.16
2023-04-09T09:10:42.654Z,12.21
2023-04-09T09:11:42.632Z,12.23
2023-04-09T09:12:42.646Z,12.26
2023-04-09T09:13:42.639Z,12.30
2023-04-09T09:14:42.598Z,12.33
2023-04-09T09:15:42.606Z,12.37
2023-04-09T09:16:42.751Z,12.43
2023-04-09T09:17:42.651Z,12.51
2023-04-09T09:18:42.553Z,12.58
2023-04-09T09:19:42.577Z,12.67
2023-04-09T09:20:42.534Z,12.73
2023-04-09T09:21:42.556Z,12.76
2023-04-09T09:22:42.515Z,12.77
2023-04-09T09:23:42.542Z,12.77
2023-04-09T09:24:42.503Z,12.76
2023-04-09T09:25:42.512Z,12.76
2023-04-09T09:26:42.485Z,12.76
2023-04-09T09:27:42.472Z,12.77
2023-04-09T09:28:42.447Z,12.79
2023-04-09T09:29:42.473Z,12.74
2023-04-09T09:30:42.456Z,12.76
2023-04-09T09:31:42.428Z,12.79
2023-04-09T09:32:42.464Z,12.87
2023-04-09T09:33:42.412Z,12.91
2023-04-09T09:34:43.392Z,12.94
2023-04-09T09:35:42.431Z,12.98
2023-04-09T09:36:42.376Z,13.01
2023-04-09T09:37:42.363Z,12.98
2023-04-09T09:38:42.347Z,12.99
2023-04-09T09:39:42.329Z,13.03
2023-04-09T09:40:42.329Z,13.07
2023-04-09T09:41:42.326Z,13.10
2023-04-09T09:42:42.305Z,13.12
2023-04-09T09:43:42.301Z,13.10
2023-04-09T09:44:42.284Z,13.16
2023-04-09T09:45:42.344Z,13.21
2023-04-09T09:46:42.337Z,13.29
2023-04-09T09:47:42.284Z,13.41
2023-04-09T09:48:42.232Z,13.48
2023-04-09T09:49:42.244Z,13.57
2023-04-09T09:50:42.241Z,13.65
2023-04-09T09:51:42.236Z,13.68
2023-04-09T09:52:42.208Z,13.66
2023-04-09T09:53:42.192Z,13.68
2023-04-09T09:54:42.192Z,13.71
2023-04-09T09:55:42.186Z,13.71
2023-04-09T09:56:42.147Z,13.73
2023-04-09T09:57:42.155Z,13.76
2023-04-09T09:58:42.147Z,13.80
2023-04-09T09:59:42.135Z,13.86
2023-04-09T10:00:42.123Z,13.88
2023-04-09T10:01:42.179Z,13.87
2023-04-09T10:02:42.198Z,13.88
2023-04-09T10:03:42.074Z,13.90
2023-04-09T10:04:42.140Z,13.91
2023-04-09T10:05:42.063Z,13.94
2023-04-09T10:06:42.059Z,13.96
2023-04-09T10:07:42.062Z,13.99
2023-04-09T10:08:42.020Z,13.93
2023-04-09T10:09:42.024Z,13.93
2023-04-09T10:10:42.019Z,13.93
2023-04-09T10:11:42.036Z,13.94
2023-04-09T10:12:41.991Z,13.91
2023-04-09T10:13:42.008Z,13.90
2023-04-09T10:14:41.956Z,13.90
2023-04-09T10:15:41.945Z,13.93
2023-04-09T10:16:41.945Z,13.98
2023-04-09T10:17:42.007Z,14.05
2023-04-09T10:18:41.938Z,14.09
2023-04-09T10:19:42.856Z,14.12
2023-04-09T10:20:41.906Z,14.12
2023-04-09T10:21:42.878Z,14.08
2023-04-09T10:22:41.885Z,14.06
2023-04-09T10:23:41.895Z,14.06
2023-04-09T10:24:41.856Z,14.08
2023-04-09T10:25:41.863Z,14.06
2023-04-09T10:26:41.870Z,14.12
2023-04-09T10:27:41.836Z,14.09
2023-04-09T10:28:41.845Z,14.13
2023-04-09T10:29:41.805Z,14.16
2023-04-09T10:30:41.807Z,14.13
2023-04-09T10:31:41.816Z,14.17
2023-04-09T10:32:41.809Z,14.24
2023-04-09T10:33:41.762Z,14.31
2023-04-09T10:34:41.741Z,14.39
2023-04-09T10:35:41.746Z,14.45
2023-04-09T10:36:41.728Z,14.49
2023-04-09T10:37:41.726Z,14.56
2023-04-09T10:38:41.720Z,14.59
2023-04-09T10:39:41.693Z,14.60
2023-04-09T10:40:41.699Z,14.57
2023-04-09T10:41:41.660Z,14.63
2023-04-09T10:42:41.670Z,14.69
2023-04-09T10:43:41.661Z,14.72
2023-04-09T10:44:41.649Z,14.80
2023-04-09T10:45:41.664Z,14.87
2023-04-09T10:46:41.707Z,14.94
2023-04-09T10:47:41.685Z,14.97
2023-04-09T10:48:41.614Z,15.00
2023-04-09T10:49:41.622Z,15.01
2023-04-09T10:50:41.580Z,15.01
2023-04-09T10:51:41.564Z,15.01
2023-04-09T10:52:41.563Z,14.98
2023-04-09T10:53:41.545Z,15.03
2023-04-09T10:54:41.545Z,15.01
2023-04-09T10:55:41.546Z,15.03
2023-04-09T10:56:41.512Z,15.12
2023-04-09T10:57:41.502Z,15.12
2023-04-09T10:58:41.507Z,15.12
2023-04-09T10:59:41.493Z,15.13
2023-04-09T11:00:41.502Z,15.13
2023-04-09T11:01:41.560Z,15.13
2023-04-09T11:02:41.540Z,15.12
2023-04-09T11:03:41.467Z,15.07
2023-04-09T11:04:41.479Z,15.07
2023-04-09T11:05:41.421Z,15.07
2023-04-09T11:06:41.412Z,15.12
2023-04-09T11:07:41.444Z,15.09
2023-04-09T11:08:41.417Z,15.07
2023-04-09T11:09:41.382Z,15.11
2023-04-09T11:10:41.381Z,15.11
2023-04-09T11:11:41.350Z,15.11
2023-04-09T11:12:41.348Z,15.12
2023-04-09T11:13:41.329Z,15.15
2023-04-09T11:14:41.339Z,15.18
2023-04-09T11:15:41.312Z,15.22
2023-04-09T11:16:41.343Z,15.25
2023-04-09T11:17:41.388Z,15.27
2023-04-09T11:18:41.341Z,15.30
2023-04-09T11:19:41.267Z,15.34
2023-04-09T11:20:41.265Z,15.44
2023-04-09T11:21:41.230Z,15.53
2023-04-09T11:22:41.244Z,15.62
2023-04-09T11:23:41.218Z,15.70
2023-04-09T11:24:41.230Z,15.74
2023-04-09T11:25:41.214Z,15.77
2023-04-09T11:26:41.195Z,15.74
2023-04-09T11:27:41.166Z,15.77
2023-04-09T11:28:41.171Z,15.78
2023-04-09T11:29:41.177Z,15.80
2023-04-09T11:30:41.138Z,15.81
2023-04-09T11:31:41.173Z,15.85
2023-04-09T11:32:41.152Z,15.85
2023-04-09T11:33:41.103Z,15.88
2023-04-09T11:34:41.111Z,15.91
2023-04-09T11:35:41.152Z,15.89
2023-04-09T11:36:41.112Z,15.89
2023-04-09T11:37:41.064Z,15.91
2023-04-09T11:38:41.072Z,15.93
2023-04-09T11:39:41.044Z,15.98
2023-04-09T11:40:41.048Z,15.99
2023-04-09T11:41:41.074Z,15.98
2023-04-09T11:42:41.020Z,16.04
2023-04-09T11:43:41.001Z,16.08
2023-04-09T11:44:40.982Z,16.11
2023-04-09T11:45:41.017Z,16.10
2023-04-09T11:46:41.016Z,16.07
2023-04-09T11:47:41.014Z,16.03
2023-04-09T11:48:40.968Z,15.99
2023-04-09T11:49:40.944Z,16.04
2023-04-09T11:50:40.957Z,16.06
2023-04-09T11:51:40.932Z,16.16
2023-04-09T11:52:40.900Z,16.27
2023-04-09T11:53:40.905Z,16.33
2023-04-09T11:54:40.878Z,16.33
2023-04-09T11:55:40.909Z,16.36
2023-04-09T11:56:40.864Z,16.36
2023-04-09T11:57:40.849Z,16.32
2023-04-09T11:58:40.847Z,16.30
2023-04-09T11:59:40.843Z,16.32
2023-04-09T12:00:40.831Z,16.36
2023-04-09T12:01:40.884Z,16.40
2023-04-09T12:02:40.983Z,16.45
2023-04-09T12:03:40.906Z,16.45
2023-04-09T12:04:40.892Z,16.57
2023-04-09T12:05:42.814Z,16.52
2023-04-09T12:06:40.753Z,16.51
2023-04-09T12:07:42.362Z,16.51
2023-04-09T12:08:41.755Z,16.69
2023-04-09T12:09:40.719Z,16.81
2023-04-09T12:10:40.720Z,16.95
2023-04-09T12:11:40.711Z,17.09
2023-04-09T12:12:40.713Z,17.10
2023-04-09T12:13:40.695Z,17.14
2023-04-09T12:14:40.681Z,17.03
2023-04-09T12:15:40.679Z,17.00
2023-04-09T12:16:40.731Z,17.21
2023-04-09T12:17:40.685Z,17.53
2023-04-09T12:18:40.643Z,17.54
2023-04-09T12:19:40.622Z,17.53
2023-04-09T12:20:40.602Z,18.19
2023-04-09T12:21:40.621Z,18.99
2023-04-09T12:22:40.589Z,19.42
2023-04-09T12:23:40.598Z,19.62
2023-04-09T12:24:40.583Z,20.38
2023-04-09T12:25:40.571Z,20.97
2023-04-09T12:26:40.571Z,20.73
2023-04-09T12:27:40.548Z,20.96
2023-04-09T12:28:40.559Z,20.60
2023-04-09T12:29:40.521Z,20.96
2023-04-09T12:30:40.499Z,21.85
2023-04-09T12:31:40.616Z,21.37
2023-04-09T12:32:40.564Z,21.00
2023-04-09T12:33:40.662Z,21.68
2023-04-09T12:34:40.495Z,21.49
2023-04-09T12:35:40.588Z,22.29
2023-04-09T12:36:40.456Z,23.60
2023-04-09T12:37:40.449Z,24.74
2023-04-09T12:38:40.427Z,25.72
2023-04-09T12:39:40.413Z,26.46
2023-04-09T12:40:40.395Z,26.97
2023-04-09T12:41:40.410Z,27.28
2023-04-09T12:42:40.380Z,27.74
2023-04-09T12:43:40.377Z,28.02
2023-04-09T12:44:40.365Z,28.50
2023-04-09T12:45:40.377Z,28.91
2023-04-09T12:46:40.372Z,29.14
2023-04-09T12:47:40.355Z,28.92
2023-04-09T12:48:40.344Z,28.94
2023-04-09T12:49:42.303Z,29.03
2023-04-09T12:50:40.282Z,29.27
2023-04-09T12:51:40.265Z,29.44
2023-04-09T12:52:40.276Z,29.69
2023-04-09T12:53:40.267Z,29.79
2023-04-09T12:54:40.244Z,29.45
2023-04-09T12:55:42.662Z,29.62
2023-04-09T12:56:40.228Z,29.63
2023-04-09T12:57:40.218Z,28.58
2023-04-09T12:58:40.205Z,28.64
2023-04-09T12:59:40.212Z,28.03
2023-04-09T13:00:40.181Z,27.05
2023-04-09T13:01:42.088Z,27.52
2023-04-09T13:02:40.388Z,28.39
2023-04-09T13:03:40.252Z,29.02
2023-04-09T13:04:40.285Z,29.66
2023-04-09T13:05:40.135Z,30.07
2023-04-09T13:06:40.132Z,30.26
2023-04-09T13:07:42.693Z,30.51